Time;durP1;ratioP1;P1;durP2;ratioP2;P2;SDS_P1;SDS_P2;PMS_P1;PMS_P2;Temp;Humidity;BMP_temperature;BMP_pressure;BME280_temperature;BME280_humidity;BME280_pressure;Samples;Min_cycle;Max_cycle;Signal;HPM_P1;HPM_P2
2022/05/09 00:02:22;;;;;;;0.80;0.50;;;12.30;99.90;;;;;;5053847;28;20166;-71
2022/05/09 00:04:47;;;;;;;0.80;0.50;;;12.30;99.90;;;;;;5053742;28;20262;-71
2022/05/09 00:07:13;;;;;;;0.80;0.50;;;12.20;99.90;;;;;;5055198;28;20171;-71
2022/05/09 00:09:38;;;;;;;0.80;0.50;;;12.20;99.90;;;;;;5055085;28;20624;-70
2022/05/09 00:12:04;;;;;;;0.80;0.50;;;12.20;99.90;;;;;;5053810;28;20725;-70
2022/05/09 00:14:30;;;;;;;0.80;0.50;;;12.20;99.90;;;;;;5054882;28;20221;-71
2022/05/09 00:16:56;;;;;;;0.80;0.50;;;12.20;99.90;;;;;;5054936;28;20405;-71
2022/05/09 00:19:22;;;;;;;0.80;0.50;;;12.10;99.90;;;;;;5053607;28;20269;-71
2022/05/09 00:21:49;;;;;;;0.80;0.50;;;12.10;99.90;;;;;;5054971;28;20175;-71
2022/05/09 00:24:17;;;;;;;0.80;0.60;;;12.10;99.90;;;;;;5054850;28;20686;-70
2022/05/09 00:26:46;;;;;;;0.80;0.50;;;12.10;99.90;;;;;;5053384;28;20474;-70
2022/05/09 00:29:13;;;;;;;0.80;0.60;;;12.00;99.90;;;;;;5054829;28;20927;-70
2022/05/09 00:31:40;;;;;;;0.80;0.50;;;12.00;99.90;;;;;;5053436;28;20414;-70
2022/05/09 00:34:06;;;;;;;0.80;0.50;;;12.00;99.90;;;;;;5053239;28;20472;-71
2022/05/09 00:36:32;;;;;;;0.80;0.50;;;12.00;99.90;;;;;;5054945;28;20402;-70
2022/05/09 00:38:59;;;;;;;0.80;0.50;;;12.00;99.90;;;;;;5054594;28;20997;-70
2022/05/09 00:41:34;;;;;;;0.80;0.50;;;11.90;99.90;;;;;;5053549;28;20167;-70
2022/05/09 00:44:20;;;;;;;0.80;0.53;;;11.90;99.90;;;;;;5053067;28;20784;-70
2022/05/09 00:46:48;;;;;;;0.80;0.50;;;11.90;99.90;;;;;;5054388;28;20479;-70
2022/05/09 00:49:23;;;;;;;0.80;0.50;;;11.90;99.90;;;;;;5054613;28;20418;-70
2022/05/09 00:51:59;;;;;;;0.80;0.50;;;11.80;99.90;;;;;;5053194;28;20818;-70
2022/05/09 00:54:28;;;;;;;0.80;0.50;;;11.80;99.90;;;;;;5052638;28;20463;-70
2022/05/09 00:57:02;;;;;;;0.80;0.50;;;11.80;99.90;;;;;;5054255;28;20409;-70
2022/05/09 00:59:30;;;;;;;0.80;0.50;;;11.70;99.90;;;;;;5054293;28;20426;-70
2022/05/09 01:01:56;;;;;;;0.80;0.50;;;11.80;99.90;;;;;;5054498;28;20529;-71
2022/05/09 01:04:26;;;;;;;0.80;0.60;;;11.70;99.90;;;;;;5052631;28;20409;-71
2022/05/09 01:06:53;;;;;;;0.80;0.50;;;11.70;99.90;;;;;;5054210;28;20832;-70
2022/05/09 01:09:18;;;;;;;0.80;0.50;;;11.70;99.90;;;;;;5054114;28;20448;-71
2022/05/09 01:11:45;;;;;;;0.80;0.50;;;11.70;99.90;;;;;;5054008;28;20923;-70
2022/05/09 01:14:27;;;;;;;0.80;0.50;;;11.60;99.90;;;;;;5053797;28;20664;-70
2022/05/09 01:16:52;;;;;;;0.80;0.50;;;11.60;99.90;;;;;;5053020;28;20492;-70
2022/05/09 01:19:38;;;;;;;0.80;0.60;;;11.60;99.90;;;;;;5054100;28;20508;-70
2022/05/09 01:22:26;;;;;;;0.80;0.50;;;11.60;99.90;;;;;;5053973;28;20170;-70
2022/05/09 01:24:55;;;;;;;0.80;0.50;;;11.60;99.90;;;;;;5053524;28;20401;-71
2022/05/09 01:27:21;;;;;;;0.80;0.50;;;11.50;99.90;;;;;;5053885;28;20412;-70
2022/05/09 01:30:08;;;;;;;0.80;0.50;;;11.50;99.90;;;;;;5053762;28;20504;-70
2022/05/09 01:32:38;;;;;;;0.80;0.50;;;11.50;99.90;;;;;;5052753;28;20767;-70
2022/05/09 01:35:15;;;;;;;0.80;0.50;;;11.50;99.90;;;;;;5053642;28;20796;-71
2022/05/09 01:37:45;;;;;;;0.80;0.50;;;11.40;99.90;;;;;;5052433;28;20410;-70
2022/05/09 01:40:11;;;;;;;0.80;0.50;;;11.40;99.90;;;;;;5052634;28;20461;-70
2022/05/09 01:42:39;;;;;;;0.80;0.50;;;11.40;99.90;;;;;;5053594;28;20437;-71
2022/05/09 01:45:06;;;;;;;0.80;0.50;;;11.40;99.90;;;;;;5052223;28;20179;-70
2022/05/09 01:50:17;;;;;;;0.80;0.60;;;11.40;99.90;;;;;;5053592;28;20397;-71
2022/05/09 01:52:44;;;;;;;0.80;0.50;;;11.30;99.90;;;;;;5053661;28;20437;-70
2022/05/09 01:55:10;;;;;;;0.80;0.50;;;11.30;99.90;;;;;;5053031;28;20293;-71
2022/05/09 01:57:36;;;;;;;0.80;0.60;;;11.30;99.90;;;;;;5052227;28;20405;-71
2022/05/09 02:00:05;;;;;;;0.80;0.50;;;11.30;99.90;;;;;;5053452;28;20405;-70
2022/05/09 02:02:31;;;;;;;0.80;0.50;;;11.30;99.90;;;;;;5052239;28;20162;-70
2022/05/09 02:04:56;;;;;;;0.80;0.60;;;11.30;99.90;;;;;;5053062;28;20406;-71
2022/05/09 02:07:23;;;;;;;1.47;1.33;;;11.30;99.90;;;;;;5053286;28;20984;-71
2022/05/09 02:09:50;;;;;;;0.80;0.50;;;11.30;99.90;;;;;;5053421;28;20551;-70
2022/05/09 02:12:17;;;;;;;0.80;0.50;;;11.30;99.90;;;;;;5052982;28;20441;-70
2022/05/09 02:14:43;;;;;;;0.80;0.50;;;11.30;99.90;;;;;;5052737;28;20465;-70
2022/05/09 02:17:10;;;;;;;0.80;0.50;;;11.20;99.90;;;;;;5053065;28;20401;-71
2022/05/09 02:19:36;;;;;;;0.80;0.50;;;11.20;99.90;;;;;;5053257;28;20428;-71
2022/05/09 02:22:02;;;;;;;0.80;0.50;;;11.20;99.90;;;;;;5051737;28;20914;-70
2022/05/09 02:24:29;;;;;;;0.90;0.60;;;11.20;99.90;;;;;;5052370;28;20413;-70
2022/05/09 02:26:56;;;;;;;0.80;0.50;;;11.20;99.90;;;;;;5051846;28;20402;-71
2022/05/09 02:29:22;;;;;;;0.80;0.60;;;11.20;99.90;;;;;;5053028;28;20431;-71
2022/05/09 02:31:48;;;;;;;0.80;0.50;;;11.20;99.90;;;;;;5052853;28;20802;-71
2022/05/09 02:34:14;;;;;;;0.80;0.50;;;11.20;99.90;;;;;;5052827;28;20244;-71
2022/05/09 02:36:40;;;;;;;0.80;0.50;;;11.20;99.90;;;;;;5051133;28;20413;-70
2022/05/09 02:39:05;;;;;;;0.80;0.50;;;11.20;99.90;;;;;;5052344;28;20464;-71
2022/05/09 02:41:31;;;;;;;0.80;0.50;;;11.20;99.90;;;;;;5052663;28;20266;-71
2022/05/09 02:43:57;;;;;;;0.80;0.50;;;11.10;99.90;;;;;;5051203;28;20179;-71
2022/05/09 02:46:23;;;;;;;0.80;0.50;;;11.10;99.90;;;;;;5051708;28;20228;-70
2022/05/09 02:48:48;;;;;;;0.90;0.60;;;11.10;99.90;;;;;;5051466;28;20238;-71
2022/05/09 02:51:15;;;;;;;0.80;0.50;;;11.10;99.90;;;;;;5051369;28;20776;-70
2022/05/09 02:53:41;;;;;;;0.80;0.50;;;11.10;99.90;;;;;;5052209;28;20261;-70
2022/05/09 02:56:06;;;;;;;0.80;0.50;;;11.10;99.90;;;;;;5051556;28;20575;-71
2022/05/09 02:58:33;;;;;;;0.80;0.50;;;11.00;99.90;;;;;;5052622;28;20237;-71
2022/05/09 03:00:59;;;;;;;0.80;0.50;;;11.00;99.90;;;;;;5052383;28;20202;-72
2022/05/09 03:06:09;;;;;;;0.80;0.50;;;11.00;99.90;;;;;;5052870;28;20205;-71
2022/05/09 03:08:35;;;;;;;0.80;0.50;;;10.90;99.90;;;;;;5052374;28;20457;-70
2022/05/09 03:11:00;;;;;;;0.80;0.50;;;10.90;99.90;;;;;;5051165;28;20170;-71
2022/05/09 03:13:26;;;;;;;0.83;0.60;;;10.90;99.90;;;;;;5051294;28;20500;-71
2022/05/09 03:15:52;;;;;;;0.80;0.50;;;10.80;99.90;;;;;;5052318;28;20201;-71
2022/05/09 03:18:22;;;;;;;0.80;0.50;;;10.80;99.90;;;;;;5052436;28;20429;-70
2022/05/09 03:20:48;;;;;;;0.80;0.50;;;10.80;99.90;;;;;;5052724;28;20641;-71
2022/05/09 03:23:13;;;;;;;0.80;0.50;;;10.80;99.90;;;;;;5052311;28;20412;-70
2022/05/09 03:25:40;;;;;;;0.80;0.50;;;10.70;99.90;;;;;;5052204;28;20167;-71
2022/05/09 03:28:08;;;;;;;0.80;0.63;;;10.70;99.90;;;;;;5050684;28;20195;-70
2022/05/09 03:30:34;;;;;;;0.80;0.50;;;10.70;99.90;;;;;;5051037;28;20956;-71
2022/05/09 03:33:00;;;;;;;0.80;0.50;;;10.70;99.90;;;;;;5051849;28;20413;-70
2022/05/09 03:35:25;;;;;;;0.80;0.50;;;10.60;99.90;;;;;;5050720;28;20199;-71
2022/05/09 03:37:53;;;;;;;0.80;0.50;;;10.60;99.90;;;;;;5053908;28;20435;-71
2022/05/09 03:40:20;;;;;;;0.80;0.50;;;10.60;99.90;;;;;;5055971;28;20167;-70
2022/05/09 03:42:46;;;;;;;0.80;0.50;;;10.60;99.90;;;;;;5054764;28;20413;-71
2022/05/09 03:45:12;;;;;;;0.80;0.50;;;10.50;99.90;;;;;;5054199;28;21125;-70
2022/05/09 03:47:38;;;;;;;0.80;0.50;;;10.50;99.90;;;;;;5055772;28;20512;-71
2022/05/09 03:50:04;;;;;;;0.80;0.50;;;10.50;99.90;;;;;;5054532;28;20508;-71
2022/05/09 03:52:30;;;;;;;0.90;0.70;;;10.50;99.90;;;;;;5055716;28;20417;-71
2022/05/09 03:54:57;;;;;;;0.80;0.50;;;10.40;99.90;;;;;;5054313;28;20464;-71
2022/05/09 03:57:23;;;;;;;0.80;0.57;;;10.40;99.90;;;;;;5054834;28;20551;-70
2022/05/09 03:59:49;;;;;;;0.80;0.50;;;10.40;99.90;;;;;;5055607;28;20409;-70
2022/05/09 04:02:14;;;;;;;0.80;0.50;;;10.40;99.90;;;;;;5054699;28;20428;-70
2022/05/09 04:04:40;;;;;;;0.80;0.50;;;10.40;99.90;;;;;;5054399;28;20413;-71
2022/05/09 04:07:05;;;;;;;0.87;0.70;;;10.40;99.90;;;;;;5055546;28;20526;-71
2022/05/09 04:09:31;;;;;;;0.80;0.50;;;10.40;99.90;;;;;;5054289;28;20195;-71
2022/05/09 04:11:56;;;;;;;0.80;0.50;;;10.40;99.90;;;;;;5055548;28;20593;-70
2022/05/09 04:17:08;;;;;;;0.80;0.60;;;10.40;99.90;;;;;;5055831;28;20209;-70
2022/05/09 04:19:33;;;;;;;0.80;0.50;;;10.40;99.90;;;;;;5055099;28;20444;-71
2022/05/09 04:22:02;;;;;;;0.80;0.50;;;10.30;99.90;;;;;;5053843;28;20410;-71
2022/05/09 04:24:29;;;;;;;0.80;0.50;;;10.40;99.90;;;;;;5053891;28;20471;-70
2022/05/09 04:26:56;;;;;;;0.80;0.50;;;10.40;99.90;;;;;;5054081;28;20418;-70
2022/05/09 04:29:21;;;;;;;0.80;0.50;;;10.40;99.90;;;;;;5053702;28;20433;-70
2022/05/09 04:31:47;;;;;;;0.80;0.50;;;10.40;99.90;;;;;;5055200;28;20496;-70
2022/05/09 04:34:12;;;;;;;0.80;0.50;;;10.40;99.90;;;;;;5054937;28;20340;-70
2022/05/09 04:36:39;;;;;;;0.80;0.50;;;10.40;99.90;;;;;;5053885;28;20206;-70
2022/05/09 04:39:05;;;;;;;0.80;0.50;;;10.50;99.90;;;;;;5054876;28;20313;-71
2022/05/09 04:41:32;;;;;;;0.80;0.50;;;10.50;99.90;;;;;;5055156;28;20402;-71
2022/05/09 04:43:58;;;;;;;0.80;0.50;;;10.50;99.90;;;;;;5053602;28;20482;-70
2022/05/09 04:46:23;;;;;;;0.80;0.50;;;10.60;99.90;;;;;;5055157;28;20496;-70
2022/05/09 04:48:49;;;;;;;0.80;0.50;;;10.60;99.90;;;;;;5053164;28;20195;-71
2022/05/09 04:51:15;;;;;;;0.80;0.50;;;10.60;99.90;;;;;;5054724;28;20177;-71
2022/05/09 04:53:41;;;;;;;0.80;0.50;;;10.70;99.90;;;;;;5054638;28;20183;-71
2022/05/09 04:56:07;;;;;;;0.80;0.50;;;10.70;99.90;;;;;;5054678;28;20777;-71
2022/05/09 04:58:33;;;;;;;0.80;0.50;;;10.80;99.90;;;;;;5054297;28;20433;-70
2022/05/09 05:00:59;;;;;;;0.80;0.50;;;10.90;99.90;;;;;;5054819;28;20166;-70
2022/05/09 05:03:25;;;;;;;0.80;0.60;;;10.90;99.90;;;;;;5053220;28;20424;-71
2022/05/09 05:05:54;;;;;;;0.80;0.50;;;11.00;99.90;;;;;;5054237;28;20969;-71
2022/05/09 05:08:21;;;;;;;0.80;0.50;;;11.00;99.90;;;;;;5054306;28;20218;-71
2022/05/09 05:10:52;;;;;;;0.80;0.50;;;11.10;99.90;;;;;;5054496;28;20493;-70
2022/05/09 05:13:19;;;;;;;0.80;0.50;;;11.20;99.90;;;;;;5054208;28;20413;-71
2022/05/09 05:15:45;;;;;;;0.80;0.50;;;11.30;99.90;;;;;;5054294;28;20966;-71
2022/05/09 05:18:11;;;;;;;0.80;0.50;;;11.40;99.90;;;;;;5054444;28;20431;-71
2022/05/09 05:20:37;;;;;;;0.80;0.60;;;11.40;99.90;;;;;;5052883;28;20178;-70
2022/05/09 05:23:03;;;;;;;0.80;0.50;;;11.50;99.90;;;;;;5052921;28;20167;-70
2022/05/09 05:25:30;;;;;;;0.80;0.50;;;11.60;99.90;;;;;;5051706;28;20409;-71
2022/05/09 05:27:57;;;;;;;0.80;0.50;;;11.80;99.90;;;;;;5053655;28;20198;-71
2022/05/09 05:30:23;;;;;;;0.80;0.50;;;11.90;99.90;;;;;;5053393;28;20417;-71
2022/05/09 05:32:50;;;;;;;0.80;0.60;;;12.00;99.90;;;;;;5054350;28;20425;-71
2022/05/09 05:35:22;;;;;;;0.80;0.70;;;12.10;99.90;;;;;;5052349;28;20441;-70
2022/05/09 05:37:48;;;;;;;0.80;0.67;;;12.30;99.90;;;;;;5053006;28;20430;-71
2022/05/09 05:40:14;;;;;;;0.80;0.60;;;12.50;99.90;;;;;;5053175;28;20895;-71
2022/05/09 05:42:41;;;;;;;0.90;0.60;;;12.70;99.90;;;;;;5052992;28;20174;-71
2022/05/09 05:45:08;;;;;;;0.80;0.50;;;12.90;99.90;;;;;;5052707;28;20413;-72
2022/05/09 05:47:34;;;;;;;0.80;0.60;;;13.00;99.90;;;;;;5052980;28;20761;-69
2022/05/09 05:50:00;;;;;;;0.80;0.60;;;13.30;99.90;;;;;;5053029;28;20415;-70
2022/05/09 05:52:25;;;;;;;0.80;0.50;;;13.50;99.90;;;;;;5052779;28;20606;-70
2022/05/09 05:54:51;;;;;;;0.80;0.60;;;13.80;99.90;;;;;;5052464;28;20566;-69
2022/05/09 05:57:28;;;;;;;6.40;1.07;;;14.10;99.90;;;;;;5052713;28;20652;-70
2022/05/09 05:59:58;;;;;;;0.83;0.63;;;14.40;99.90;;;;;;5052627;28;20211;-70
2022/05/09 06:02:25;;;;;;;0.80;0.60;;;14.80;99.90;;;;;;5053242;28;20410;-70
2022/05/09 06:04:51;;;;;;;1.10;0.70;;;15.20;99.90;;;;;;5052712;28;20425;-70
2022/05/09 06:07:18;;;;;;;0.90;0.70;;;15.50;99.90;;;;;;5052814;28;20417;-70
2022/05/09 06:09:45;;;;;;;1.00;0.80;;;16.00;99.90;;;;;;5051503;28;20199;-70
2022/05/09 06:12:11;;;;;;;1.10;0.77;;;16.40;99.90;;;;;;5052587;28;20405;-70
2022/05/09 06:14:38;;;;;;;0.80;0.53;;;16.80;99.90;;;;;;5052220;28;20539;-71
2022/05/09 06:17:05;;;;;;;1.00;0.83;;;17.30;99.90;;;;;;5052566;28;20425;-70
2022/05/09 06:19:31;;;;;;;1.83;1.10;;;17.70;99.90;;;;;;5052286;28;20456;-70
2022/05/09 06:21:58;;;;;;;1.63;0.90;;;18.20;99.90;;;;;;5052794;28;20405;-71
2022/05/09 06:24:23;;;;;;;0.90;0.70;;;18.70;99.90;;;;;;5052612;28;20797;-70
2022/05/09 06:26:50;;;;;;;1.10;0.77;;;19.30;99.90;;;;;;5051452;28;20413;-70
2022/05/09 06:29:15;;;;;;;0.90;0.70;;;19.80;99.90;;;;;;5052633;28;20426;-70
2022/05/09 06:31:41;;;;;;;0.80;0.70;;;20.40;99.90;;;;;;5051331;28;20945;-70
2022/05/09 06:34:11;;;;;;;0.90;0.77;;;21.00;99.90;;;;;;5051806;28;20194;-71
2022/05/09 06:36:37;;;;;;;0.93;0.83;;;21.60;99.90;;;;;;5052176;28;20166;-70
2022/05/09 06:39:04;;;;;;;2.73;1.10;;;22.20;99.90;;;;;;5050746;28;20468;-70
2022/05/09 06:41:30;;;;;;;1.50;0.77;;;22.80;99.90;;;;;;5051929;28;20420;-70
2022/05/09 06:43:56;;;;;;;2.20;1.00;;;23.60;99.90;;;;;;5051687;28;20409;-70
2022/05/09 06:46:21;;;;;;;1.10;0.97;;;24.30;99.90;;;;;;5052093;28;20195;-70
2022/05/09 06:48:47;;;;;;;1.20;1.10;;;24.90;97.90;;;;;;5051919;28;20234;-70
2022/05/09 06:51:13;;;;;;;0.90;0.70;;;25.60;93.10;;;;;;5052035;28;20171;-70
2022/05/09 06:53:39;;;;;;;1.00;0.83;;;26.30;90.60;;;;;;5051146;28;20182;-70
2022/05/09 06:56:04;;;;;;;1.50;1.40;;;27.00;81.50;;;;;;5051287;28;20492;-70
2022/05/09 06:58:31;;;;;;;1.73;1.63;;;27.80;75.80;;;;;;5051648;28;20453;-71
2022/05/09 07:00:57;;;;;;;1.00;0.73;;;28.50;72.50;;;;;;5051883;28;20254;-70
2022/05/09 07:03:23;;;;;;;1.00;0.90;;;29.20;69.40;;;;;;5051792;28;20545;-70
2022/05/09 07:05:51;;;;;;;1.00;0.80;;;30.00;64.90;;;;;;5051597;28;20460;-70
2022/05/09 07:08:18;;;;;;;1.17;1.03;;;30.70;59.60;;;;;;5050482;28;20433;-71
2022/05/09 07:10:44;;;;;;;0.90;0.70;;;31.50;58.10;;;;;;5053236;28;20417;-71
2022/05/09 07:13:09;;;;;;;3.00;1.07;;;32.30;56.10;;;;;;5055941;28;20401;-71
2022/05/09 07:15:36;;;;;;;1.63;1.10;;;33.10;53.50;;;;;;5054259;28;20202;-70
2022/05/09 07:18:03;;;;;;;1.50;1.40;;;33.90;52.00;;;;;;5055729;28;20214;-71
2022/05/09 07:20:31;;;;;;;1.87;1.67;;;34.60;48.80;;;;;;5055821;28;20408;-71
2022/05/09 07:23:06;;;;;;;1.60;1.50;;;35.20;45.60;;;;;;5055890;28;20433;-71
2022/05/09 07:25:32;;;;;;;3.23;1.30;;;35.80;44.50;;;;;;5055628;28;20401;-70
2022/05/09 07:27:57;;;;;;;1.00;0.90;;;36.50;42.40;;;;;;5055861;28;20482;-71
2022/05/09 07:30:23;;;;;;;1.20;0.90;;;37.10;41.60;;;;;;5056072;28;20182;-71
2022/05/09 07:32:54;;;;;;;1.30;1.13;;;37.70;40.80;;;;;;5055669;28;20612;-71
2022/05/09 07:35:20;;;;;;;1.10;1.00;;;38.20;39.30;;;;;;5055183;28;20683;-71
2022/05/09 07:37:46;;;;;;;1.63;1.40;;;38.90;38.90;;;;;;5054458;28;20448;-70
2022/05/09 07:40:13;;;;;;;1.10;1.00;;;39.50;38.00;;;;;;5055462;28;20405;-71
2022/05/09 07:42:44;;;;;;;1.10;1.00;;;40.20;37.50;;;;;;5055402;28;20538;-71
2022/05/09 07:45:13;;;;;;;1.30;1.20;;;40.70;36.10;;;;;;5053710;28;20421;-69
2022/05/09 07:47:39;;;;;;;1.33;1.23;;;41.20;35.30;;;;;;5055130;28;20819;-69
2022/05/09 07:50:06;;;;;;;1.37;1.10;;;41.80;34.60;;;;;;5055317;28;20401;-69
2022/05/09 07:52:32;;;;;;;1.63;1.20;;;42.20;33.30;;;;;;5055225;28;20503;-71
2022/05/09 07:54:57;;;;;;;1.30;1.20;;;42.60;31.90;;;;;;5054829;28;20552;-71
2022/05/09 07:57:23;;;;;;;1.53;1.33;;;42.90;30.20;;;;;;5055216;28;20171;-69
2022/05/09 07:59:49;;;;;;;1.47;1.37;;;43.20;29.90;;;;;;5055203;28;20672;-70
2022/05/09 08:02:14;;;;;;;2.03;1.80;;;43.70;29.50;;;;;;5053831;28;20175;-70
2022/05/09 08:04:40;;;;;;;2.50;1.30;;;44.10;28.90;;;;;;5053546;28;20210;-70
2022/05/09 08:07:06;;;;;;;3.07;2.83;;;44.50;28.70;;;;;;5055082;28;20628;-70
2022/05/09 08:09:32;;;;;;;2.40;1.30;;;45.00;28.70;;;;;;5054959;28;20332;-69
2022/05/09 08:12:00;;;;;;;1.20;1.10;;;45.70;28.70;;;;;;5055044;28;20452;-70
2022/05/09 08:14:26;;;;;;;1.83;1.73;;;46.30;28.30;;;;;;5054693;28;20198;-69
2022/05/09 08:16:52;;;;;;;2.27;2.07;;;46.80;27.50;;;;;;5054883;28;20405;-70
2022/05/09 08:19:18;;;;;;;1.77;1.40;;;47.20;27.10;;;;;;5053404;28;20419;-69
2022/05/09 08:21:49;;;;;;;2.10;1.27;;;47.70;26.90;;;;;;5053054;28;20308;-69
2022/05/09 08:24:16;;;;;;;1.40;1.30;;;48.20;26.80;;;;;;5054364;28;20413;-70
2022/05/09 08:26:42;;;;;;;1.87;1.73;;;48.70;26.40;;;;;;5054588;28;20390;-70
2022/05/09 08:29:07;;;;;;;1.20;1.10;;;49.10;26.10;;;;;;5054769;28;20392;-69
2022/05/09 08:31:33;;;;;;;1.60;1.50;;;49.50;25.60;;;;;;5054593;28;20175;-70
2022/05/09 08:33:59;;;;;;;1.60;1.50;;;49.70;25.20;;;;;;5054152;28;20173;-70
2022/05/09 08:39:09;;;;;;;1.50;1.40;;;50.30;24.80;;;;;;5054368;28;20398;-71
2022/05/09 08:41:48;;;;;;;1.30;1.20;;;50.60;24.80;;;;;;5054460;28;20411;-69
2022/05/09 08:44:35;;;;;;;1.30;1.20;;;50.80;24.40;;;;;;5054200;28;20222;-70
2022/05/09 08:47:38;;;;;;;1.60;1.50;;;51.20;24.50;;;;;;5053734;28;20401;-70
2022/05/09 08:50:39;;;;;;;1.40;1.30;;;51.70;24.50;;;;;;5054075;28;20459;-70
2022/05/09 08:53:10;;;;;;;1.60;1.50;;;52.00;24.00;;;;;;5049805;28;20392;-70
2022/05/09 08:55:41;;;;;;;1.60;1.50;;;52.30;23.70;;;;;;5053714;28;20411;-70
2022/05/09 08:58:44;;;;;;;1.50;1.40;;;52.50;23.80;;;;;;5053965;28;20833;-70
2022/05/09 09:01:12;;;;;;;1.70;1.60;;;52.80;23.70;;;;;;5053963;28;20383;-70
2022/05/09 09:03:40;;;;;;;1.50;1.40;;;52.80;23.30;;;;;;5053934;28;20424;-70
2022/05/09 09:06:18;;;;;;;3.13;1.60;;;52.90;23.10;;;;;;5053510;28;21000;-70
2022/05/09 09:09:06;;;;;;;1.80;1.70;;;52.90;23.10;;;;;;5053796;28;20482;-71
2022/05/09 09:12:03;;;;;;;1.83;1.73;;;53.00;23.10;;;;;;5053810;28;20442;-70
2022/05/09 09:14:34;;;;;;;1.90;1.80;;;53.20;23.00;;;;;;5052156;28;20458;-70
2022/05/09 09:17:24;;;;;;;1.70;1.60;;;53.10;22.50;;;;;;5053734;28;20435;-70
2022/05/09 09:20:26;;;;;;;1.80;1.70;;;53.10;22.80;;;;;;5053674;28;20757;-70
2022/05/09 09:23:19;;;;;;;1.60;1.50;;;53.30;22.80;;;;;;5053495;28;20387;-70
2022/05/09 09:25:59;;;;;;;2.00;1.90;;;53.60;22.80;;;;;;5053176;28;20448;-70
2022/05/09 09:28:34;;;;;;;1.60;1.50;;;53.90;22.90;;;;;;5053543;28;20413;-69
2022/05/09 09:31:05;;;;;;;1.50;1.00;;;54.20;22.60;;;;;;5052571;28;20406;-70
2022/05/09 09:33:44;;;;;;;1.60;1.50;;;54.10;22.80;;;;;;5052774;28;20179;-70
2022/05/09 09:36:14;;;;;;;1.87;1.77;;;54.60;22.90;;;;;;5051827;28;20504;-70
2022/05/09 09:39:20;;;;;;;1.80;1.70;;;54.90;22.50;;;;;;5053141;28;20421;-70
2022/05/09 09:41:47;;;;;;;1.83;1.73;;;55.10;22.50;;;;;;5052858;28;20409;-71
2022/05/09 09:44:21;;;;;;;1.80;1.70;;;55.40;22.30;;;;;;5053045;28;20444;-70
2022/05/09 09:47:07;;;;;;;1.90;1.80;;;55.60;22.50;;;;;;5053325;28;20780;-71
2022/05/09 09:49:38;;;;;;;2.33;2.23;;;55.90;22.00;;;;;;5051719;28;20437;-71
2022/05/09 09:52:24;;;;;;;2.47;2.27;;;56.10;22.00;;;;;;5053150;28;20410;-70
2022/05/09 09:55:22;;;;;;;1.80;1.70;;;56.40;22.10;;;;;;5052983;28;20815;-70
2022/05/09 09:57:48;;;;;;;2.00;1.90;;;56.90;22.30;;;;;;5049537;28;20437;-70
2022/05/09 10:00:19;;;;;;;1.90;1.80;;;57.50;22.30;;;;;;5052730;28;20476;-71
2022/05/09 10:02:48;;;;;;;2.20;2.10;;;57.90;22.20;;;;;;5052692;28;20163;-71
2022/05/09 10:05:19;;;;;;;2.40;2.30;;;58.40;22.30;;;;;;5052915;28;20444;-70
2022/05/09 10:07:46;;;;;;;2.40;2.30;;;59.00;22.30;;;;;;5051321;28;20433;-70
2022/05/09 10:10:15;;;;;;;2.70;2.60;;;59.40;21.70;;;;;;5053247;28;20416;-70
2022/05/09 10:12:48;;;;;;;2.50;2.40;;;59.40;21.40;;;;;;5052502;28;20396;-70
2022/05/09 10:15:29;;;;;;;3.07;2.97;;;59.70;21.30;;;;;;5051063;28;20440;-70
2022/05/09 10:17:57;;;;;;;2.40;2.30;;;60.00;21.50;;;;;;5052426;28;20429;-70
2022/05/09 10:20:41;;;;;;;3.37;3.27;;;60.50;21.50;;;;;;5053053;28;20777;-71
2022/05/09 10:26:13;;;;;;;2.63;2.53;;;60.70;20.80;;;;;;5052970;28;20501;-70
2022/05/09 10:28:45;;;;;;;3.03;2.93;;;61.00;20.90;;;;;;5052506;28;20420;-71
2022/05/09 10:31:30;;;;;;;2.57;2.47;;;61.50;20.90;;;;;;5051281;28;20770;-71
2022/05/09 10:34:05;;;;;;;3.10;3.00;;;61.90;21.00;;;;;;5052759;28;20393;-71
2022/05/09 10:36:41;;;;;;;3.60;3.40;;;62.20;20.90;;;;;;5052394;28;20458;-71
2022/05/09 10:39:32;;;;;;;3.10;3.00;;;62.30;20.50;;;;;;5052779;28;20428;-71
2022/05/09 10:42:06;;;;;;;3.37;3.27;;;62.60;20.70;;;;;;5050887;28;20397;-71
2022/05/09 10:45:01;;;;;;;3.50;3.40;;;62.60;20.30;;;;;;5052075;28;20463;-70
2022/05/09 10:47:46;;;;;;;3.40;3.30;;;62.60;20.40;;;;;;5051090;28;20413;-71
2022/05/09 10:50:17;;;;;;;3.67;3.47;;;62.70;20.40;;;;;;5050872;28;20404;-71
2022/05/09 10:52:59;;;;;;;3.90;3.80;;;62.70;20.20;;;;;;5052404;28;20401;-70
2022/05/09 10:55:44;;;;;;;3.93;3.73;;;62.60;20.20;;;;;;5052053;28;20842;-71
2022/05/09 10:58:25;;;;;;;3.60;3.40;;;62.20;19.60;;;;;;5052263;28;20980;-71
2022/05/09 11:01:07;;;;;;;3.23;3.13;;;61.90;19.90;;;;;;5051890;28;20401;-71
2022/05/09 11:03:39;;;;;;;3.63;3.43;;;61.80;19.80;;;;;;5052057;28;20397;-71
2022/05/09 11:06:42;;;;;;;3.20;3.10;;;61.30;19.50;;;;;;5051666;28;20456;-71
2022/05/09 11:09:26;;;;;;;3.13;3.03;;;60.80;19.60;;;;;;5050425;28;20960;-70
2022/05/09 11:12:18;;;;;;;2.90;2.80;;;60.50;19.80;;;;;;5050697;28;20435;-71
2022/05/09 11:15:01;;;;;;;3.30;3.20;;;60.40;20.00;;;;;;5051521;28;20392;-70
2022/05/09 11:17:39;;;;;;;3.27;3.17;;;60.40;20.70;;;;;;5051652;28;20412;-71
2022/05/09 11:20:25;;;;;;;3.80;3.60;;;60.60;20.20;;;;;;5051841;28;20404;-71
2022/05/09 11:23:25;;;;;;;3.53;3.43;;;60.50;19.70;;;;;;5052072;28;20943;-71
2022/05/09 11:25:57;;;;;;;3.00;2.90;;;60.10;19.60;;;;;;5051308;28;20445;-71
2022/05/09 11:28:36;;;;;;;3.10;3.00;;;59.90;19.60;;;;;;5050273;28;20441;-70
2022/05/09 11:31:25;;;;;;;3.27;3.17;;;59.80;19.90;;;;;;5051694;28;20459;-70
2022/05/09 11:33:58;;;;;;;2.70;2.60;;;59.90;20.10;;;;;;5050182;28;20506;-71
2022/05/09 11:36:50;;;;;;;3.00;2.90;;;60.20;20.30;;;;;;5051763;28;21064;-71
2022/05/09 11:39:57;;;;;;;2.80;2.70;;;60.40;20.00;;;;;;5051653;28;20791;-70
2022/05/09 11:45:48;;;;;;;2.90;2.80;;;60.20;20.10;;;;;;5051247;28;20498;-70
2022/05/09 11:48:41;;;;;;;3.40;3.30;;;60.40;20.00;;;;;;5051416;28;20413;-71
2022/05/09 11:51:15;;;;;;;2.70;2.60;;;60.10;20.20;;;;;;5051447;28;20910;-70
2022/05/09 11:53:47;;;;;;;3.37;3.17;;;59.90;19.70;;;;;;5049853;28;20433;-70
2022/05/09 11:56:13;;;;;;;3.13;3.03;;;59.60;19.50;;;;;;5051205;28;20451;-70
2022/05/09 11:58:41;;;;;;;2.57;2.47;;;59.40;19.70;;;;;;5054196;28;20459;-69
2022/05/09 12:01:07;;;;;;;2.60;2.50;;;59.10;19.80;;;;;;5054998;28;20432;-70
2022/05/09 12:03:38;;;;;;;2.47;2.37;;;59.10;19.90;;;;;;5054819;28;20397;-71
2022/05/09 12:06:06;;;;;;;2.60;2.50;;;59.00;20.00;;;;;;5054657;28;20276;-69
2022/05/09 12:08:43;;;;;;;2.60;2.50;;;58.70;20.00;;;;;;5054853;28;20511;-70
2022/05/09 12:11:18;;;;;;;2.60;2.50;;;58.20;20.20;;;;;;5053620;28;20455;-70
2022/05/09 12:13:43;;;;;;;2.40;2.30;;;58.00;20.10;;;;;;5053487;28;20408;-70
2022/05/09 12:16:10;;;;;;;2.57;2.47;;;58.10;20.30;;;;;;5054547;28;20400;-69
2022/05/09 12:19:11;;;;;;;2.57;2.47;;;58.20;20.30;;;;;;5054704;28;20191;-70
2022/05/09 12:21:37;;;;;;;2.97;2.77;;;58.40;20.40;;;;;;5050829;28;20428;-70
2022/05/09 12:24:14;;;;;;;2.20;2.10;;;58.50;20.00;;;;;;5054593;28;20401;-71
2022/05/09 12:26:42;;;;;;;2.70;2.60;;;57.50;19.80;;;;;;5054760;28;20174;-69
2022/05/09 12:29:17;;;;;;;2.50;2.40;;;56.70;20.10;;;;;;5054546;28;20556;-69
2022/05/09 12:31:49;;;;;;;2.60;2.50;;;56.40;20.30;;;;;;5054559;28;20372;-70
2022/05/09 12:34:18;;;;;;;2.63;2.43;;;56.30;20.10;;;;;;5054290;28;20383;-69
2022/05/09 12:36:44;;;;;;;2.20;2.10;;;56.00;20.10;;;;;;5054352;28;20437;-70
2022/05/09 12:39:31;;;;;;;2.47;2.37;;;55.70;20.20;;;;;;5054328;28;20869;-70
2022/05/09 12:41:59;;;;;;;2.10;2.00;;;55.40;20.10;;;;;;5054326;28;20412;-69
2022/05/09 12:44:34;;;;;;;1.87;1.77;;;55.00;20.20;;;;;;5054001;28;20431;-69
2022/05/09 12:47:05;;;;;;;1.70;1.60;;;54.30;20.50;;;;;;5054237;28;21091;-69
2022/05/09 12:49:36;;;;;;;2.50;2.30;;;53.50;20.60;;;;;;5054081;28;20409;-69
2022/05/09 12:52:03;;;;;;;3.00;2.80;;;53.20;20.80;;;;;;5054119;28;20397;-68
2022/05/09 12:54:29;;;;;;;2.17;1.90;;;53.00;20.60;;;;;;5053670;28;20481;-69
2022/05/09 12:57:00;;;;;;;2.17;1.80;;;52.90;20.80;;;;;;5054017;28;20726;-69
2022/05/09 12:59:45;;;;;;;2.53;1.97;;;53.10;21.00;;;;;;5053928;28;20436;-70
2022/05/09 13:02:20;;;;;;;2.10;2.00;;;53.80;21.20;;;;;;5053063;28;20467;-70
2022/05/09 13:04:48;;;;;;;1.90;1.80;;;54.00;21.50;;;;;;5053804;28;20420;-69
2022/05/09 13:07:14;;;;;;;1.90;1.80;;;53.30;20.90;;;;;;5053908;28;20368;-69
2022/05/09 13:09:52;;;;;;;1.90;1.80;;;51.90;21.00;;;;;;5053646;28;20467;-69
2022/05/09 13:12:26;;;;;;;2.00;1.87;;;50.30;21.20;;;;;;5053770;28;20636;-69
2022/05/09 13:14:55;;;;;;;1.37;1.27;;;49.00;21.60;;;;;;5053568;28;20389;-69
2022/05/09 13:18:02;;;;;;;1.50;1.40;;;48.50;22.00;;;;;;5053648;28;20937;-69
2022/05/09 13:20:30;;;;;;;1.87;1.77;;;47.80;22.20;;;;;;5031296;28;20396;-69
2022/05/09 13:23:08;;;;;;;1.30;1.20;;;48.00;22.70;;;;;;5031395;28;20947;-69
2022/05/09 13:25:36;;;;;;;1.80;1.70;;;48.30;22.60;;;;;;5043338;28;20439;-70